sensor_id;sensor_type;location;lat;lon;timestamp;P1;durP1;ratioP1;P2;durP2;ratioP2
12435;SDS011;6282;51.440;6.938;2023-06-14T00:01:45;2.92;;;2.60;;
12435;SDS011;6282;51.440;6.938;2023-06-14T00:04:12;3.30;;;2.83;;
12435;SDS011;6282;51.440;6.938;2023-06-14T00:06:41;3.78;;;2.63;;
12435;SDS011;6282;51.440;6.938;2023-06-14T00:09:10;5.05;;;3.20;;
12435;SDS011;6282;51.440;6.938;2023-06-14T00:11:37;4.55;;;3.00;;
12435;SDS011;6282;51.440;6.938;2023-06-14T00:14:04;4.20;;;3.20;;
12435;SDS011;6282;51.440;6.938;2023-06-14T00:16:33;2.97;;;2.70;;
12435;SDS011;6282;51.440;6.938;2023-06-14T00:19:00;3.00;;;2.70;;
12435;SDS011;6282;51.440;6.938;2023-06-14T00:21:28;3.92;;;2.72;;
12435;SDS011;6282;51.440;6.938;2023-06-14T00:23:55;4.63;;;3.63;;
12435;SDS011;6282;51.440;6.938;2023-06-14T00:26:22;4.93;;;3.08;;
12435;SDS011;6282;51.440;6.938;2023-06-14T00:28:49;3.67;;;3.30;;
12435;SDS011;6282;51.440;6.938;2023-06-14T00:31:16;3.97;;;2.55;;
12435;SDS011;6282;51.440;6.938;2023-06-14T00:33:44;4.63;;;2.72;;
12435;SDS011;6282;51.440;6.938;2023-06-14T00:36:11;4.03;;;3.15;;
12435;SDS011;6282;51.440;6.938;2023-06-14T00:38:38;3.42;;;3.10;;
12435;SDS011;6282;51.440;6.938;2023-06-14T00:41:04;3.60;;;2.88;;
12435;SDS011;6282;51.440;6.938;2023-06-14T00:43:31;3.40;;;3.10;;
12435;SDS011;6282;51.440;6.938;2023-06-14T00:45:59;4.35;;;2.92;;
12435;SDS011;6282;51.440;6.938;2023-06-14T00:48:27;3.65;;;2.75;;
12435;SDS011;6282;51.440;6.938;2023-06-14T00:50:55;3.38;;;2.50;;
12435;SDS011;6282;51.440;6.938;2023-06-14T00:53:23;4.68;;;2.72;;
12435;SDS011;6282;51.440;6.938;2023-06-14T00:55:50;3.22;;;2.90;;
12435;SDS011;6282;51.440;6.938;2023-06-14T00:58:17;3.00;;;2.75;;
12435;SDS011;6282;51.440;6.938;2023-06-14T01:00:44;3.42;;;2.80;;
12435;SDS011;6282;51.440;6.938;2023-06-14T01:03:11;3.58;;;3.00;;
12435;SDS011;6282;51.440;6.938;2023-06-14T01:05:39;4.18;;;2.78;;
12435;SDS011;6282;51.440;6.938;2023-06-14T01:08:11;4.22;;;3.22;;
12435;SDS011;6282;51.440;6.938;2023-06-14T01:10:51;4.68;;;2.97;;
12435;SDS011;6282;51.440;6.938;2023-06-14T01:13:29;3.53;;;2.70;;
12435;SDS011;6282;51.440;6.938;2023-06-14T01:15:59;2.80;;;2.60;;
12435;SDS011;6282;51.440;6.938;2023-06-14T01:18:28;3.38;;;2.60;;
12435;SDS011;6282;51.440;6.938;2023-06-14T01:20:55;2.83;;;2.60;;
12435;SDS011;6282;51.440;6.938;2023-06-14T01:23:24;2.90;;;2.47;;
12435;SDS011;6282;51.440;6.938;2023-06-14T01:25:57;4.15;;;2.90;;
12435;SDS011;6282;51.440;6.938;2023-06-14T01:28:27;2.75;;;2.47;;
12435;SDS011;6282;51.440;6.938;2023-06-14T01:30:59;2.97;;;2.58;;
12435;SDS011;6282;51.440;6.938;2023-06-14T01:33:29;3.40;;;2.45;;
12435;SDS011;6282;51.440;6.938;2023-06-14T01:35:58;2.90;;;2.60;;
12435;SDS011;6282;51.440;6.938;2023-06-14T01:38:28;3.00;;;2.63;;
12435;SDS011;6282;51.440;6.938;2023-06-14T01:40:57;3.22;;;2.47;;
12435;SDS011;6282;51.440;6.938;2023-06-14T01:43:26;3.35;;;2.60;;
12435;SDS011;6282;51.440;6.938;2023-06-14T01:45:57;4.40;;;3.00;;
12435;SDS011;6282;51.440;6.938;2023-06-14T01:48:25;2.70;;;2.42;;
12435;SDS011;6282;51.440;6.938;2023-06-14T01:50:52;2.60;;;2.33;;
12435;SDS011;6282;51.440;6.938;2023-06-14T01:53:19;4.18;;;2.83;;
12435;SDS011;6282;51.440;6.938;2023-06-14T01:55:47;3.67;;;2.55;;
12435;SDS011;6282;51.440;6.938;2023-06-14T01:58:14;4.25;;;2.55;;
12435;SDS011;6282;51.440;6.938;2023-06-14T02:00:42;3.50;;;3.10;;
12435;SDS011;6282;51.440;6.938;2023-06-14T02:03:10;3.55;;;2.72;;
12435;SDS011;6282;51.440;6.938;2023-06-14T02:05:38;2.95;;;2.70;;
12435;SDS011;6282;51.440;6.938;2023-06-14T02:08:05;3.00;;;2.38;;
12435;SDS011;6282;51.440;6.938;2023-06-14T02:10:32;2.70;;;2.50;;
12435;SDS011;6282;51.440;6.938;2023-06-14T02:13:01;2.90;;;2.60;;
12435;SDS011;6282;51.440;6.938;2023-06-14T02:15:28;4.20;;;2.78;;
12435;SDS011;6282;51.440;6.938;2023-06-14T02:17:59;4.60;;;2.55;;
12435;SDS011;6282;51.440;6.938;2023-06-14T02:20:27;2.95;;;2.25;;
12435;SDS011;6282;51.440;6.938;2023-06-14T02:22:54;3.33;;;3.00;;
12435;SDS011;6282;51.440;6.938;2023-06-14T02:25:21;3.13;;;2.78;;
12435;SDS011;6282;51.440;6.938;2023-06-14T02:27:48;7.00;;;2.80;;
12435;SDS011;6282;51.440;6.938;2023-06-14T02:30:16;3.03;;;2.58;;
12435;SDS011;6282;51.440;6.938;2023-06-14T02:32:43;2.83;;;2.40;;
12435;SDS011;6282;51.440;6.938;2023-06-14T02:35:10;3.80;;;2.83;;
12435;SDS011;6282;51.440;6.938;2023-06-14T02:37:36;3.17;;;2.50;;
12435;SDS011;6282;51.440;6.938;2023-06-14T02:40:04;2.78;;;2.45;;
12435;SDS011;6282;51.440;6.938;2023-06-14T02:42:32;4.55;;;2.20;;
12435;SDS011;6282;51.440;6.938;2023-06-14T02:44:59;2.78;;;2.33;;
12435;SDS011;6282;51.440;6.938;2023-06-14T02:47:28;2.33;;;2.08;;
12435;SDS011;6282;51.440;6.938;2023-06-14T02:49:55;4.57;;;2.65;;
12435;SDS011;6282;51.440;6.938;2023-06-14T02:52:22;3.30;;;2.60;;
12435;SDS011;6282;51.440;6.938;2023-06-14T02:54:50;2.65;;;2.40;;
12435;SDS011;6282;51.440;6.938;2023-06-14T02:57:17;2.42;;;2.22;;
12435;SDS011;6282;51.440;6.938;2023-06-14T02:59:43;2.53;;;2.20;;
12435;SDS011;6282;51.440;6.938;2023-06-14T03:02:10;2.95;;;2.33;;
12435;SDS011;6282;51.440;6.938;2023-06-14T03:04:39;3.08;;;2.22;;
12435;SDS011;6282;51.440;6.938;2023-06-14T03:07:09;2.95;;;2.47;;
12435;SDS011;6282;51.440;6.938;2023-06-14T03:09:37;3.20;;;2.70;;
12435;SDS011;6282;51.440;6.938;2023-06-14T03:12:05;2.85;;;2.38;;
12435;SDS011;6282;51.440;6.938;2023-06-14T03:14:34;3.17;;;2.20;;
12435;SDS011;6282;51.440;6.938;2023-06-14T03:17:01;2.72;;;2.30;;
12435;SDS011;6282;51.440;6.938;2023-06-14T03:19:29;3.35;;;2.33;;
12435;SDS011;6282;51.440;6.938;2023-06-14T03:21:58;3.05;;;2.60;;
12435;SDS011;6282;51.440;6.938;2023-06-14T03:24:25;2.33;;;2.13;;
12435;SDS011;6282;51.440;6.938;2023-06-14T03:26:53;3.63;;;2.50;;
12435;SDS011;6282;51.440;6.938;2023-06-14T03:29:22;3.55;;;2.20;;
12435;SDS011;6282;51.440;6.938;2023-06-14T03:31:56;4.25;;;2.30;;
12435;SDS011;6282;51.440;6.938;2023-06-14T03:34:24;2.78;;;2.10;;
12435;SDS011;6282;51.440;6.938;2023-06-14T03:36:51;2.80;;;2.42;;
12435;SDS011;6282;51.440;6.938;2023-06-14T03:39:19;2.42;;;2.05;;
12435;SDS011;6282;51.440;6.938;2023-06-14T03:41:46;3.38;;;2.30;;
12435;SDS011;6282;51.440;6.938;2023-06-14T03:44:14;3.28;;;2.20;;
12435;SDS011;6282;51.440;6.938;2023-06-14T03:46:42;2.67;;;2.25;;
12435;SDS011;6282;51.440;6.938;2023-06-14T03:49:10;4.20;;;2.50;;
12435;SDS011;6282;51.440;6.938;2023-06-14T03:51:37;3.40;;;2.65;;
12435;SDS011;6282;51.440;6.938;2023-06-14T03:54:04;3.72;;;2.40;;
12435;SDS011;6282;51.440;6.938;2023-06-14T03:56:33;4.35;;;2.30;;
12435;SDS011;6282;51.440;6.938;2023-06-14T03:59:01;5.07;;;2.05;;
12435;SDS011;6282;51.440;6.938;2023-06-14T04:01:27;5.95;;;2.58;;
12435;SDS011;6282;51.440;6.938;2023-06-14T04:03:56;3.65;;;2.35;;
12435;SDS011;6282;51.440;6.938;2023-06-14T04:06:23;5.15;;;2.13;;
12435;SDS011;6282;51.440;6.938;2023-06-14T04:08:57;2.67;;;1.80;;
12435;SDS011;6282;51.440;6.938;2023-06-14T04:11:28;3.60;;;2.10;;
12435;SDS011;6282;51.440;6.938;2023-06-14T04:13:57;4.88;;;2.28;;
12435;SDS011;6282;51.440;6.938;2023-06-14T04:16:24;3.40;;;2.10;;
12435;SDS011;6282;51.440;6.938;2023-06-14T04:18:51;3.60;;;1.90;;
12435;SDS011;6282;51.440;6.938;2023-06-14T04:21:18;2.65;;;2.22;;
12435;SDS011;6282;51.440;6.938;2023-06-14T04:23:45;2.92;;;1.98;;
12435;SDS011;6282;51.440;6.938;2023-06-14T04:26:13;2.30;;;2.10;;
12435;SDS011;6282;51.440;6.938;2023-06-14T04:28:41;2.15;;;1.95;;
12435;SDS011;6282;51.440;6.938;2023-06-14T04:31:11;3.88;;;2.38;;
12435;SDS011;6282;51.440;6.938;2023-06-14T04:33:38;3.90;;;1.95;;
12435;SDS011;6282;51.440;6.938;2023-06-14T04:36:08;2.65;;;2.13;;
12435;SDS011;6282;51.440;6.938;2023-06-14T04:38:36;2.53;;;2.33;;
12435;SDS011;6282;51.440;6.938;2023-06-14T04:41:03;2.22;;;2.03;;
12435;SDS011;6282;51.440;6.938;2023-06-14T04:43:31;2.72;;;2.10;;
12435;SDS011;6282;51.440;6.938;2023-06-14T04:46:03;4.03;;;1.95;;
12435;SDS011;6282;51.440;6.938;2023-06-14T04:48:36;2.40;;;2.20;;
12435;SDS011;6282;51.440;6.938;2023-06-14T04:51:04;2.30;;;2.05;;
12435;SDS011;6282;51.440;6.938;2023-06-14T04:53:31;2.72;;;2.03;;
12435;SDS011;6282;51.440;6.938;2023-06-14T04:55:59;2.20;;;1.98;;
12435;SDS011;6282;51.440;6.938;2023-06-14T04:58:26;2.40;;;2.20;;
12435;SDS011;6282;51.440;6.938;2023-06-14T05:00:53;2.40;;;1.92;;
12435;SDS011;6282;51.440;6.938;2023-06-14T05:03:21;3.13;;;1.70;;
12435;SDS011;6282;51.440;6.938;2023-06-14T05:05:50;3.10;;;2.10;;
12435;SDS011;6282;51.440;6.938;2023-06-14T05:08:18;2.58;;;1.92;;
12435;SDS011;6282;51.440;6.938;2023-06-14T05:10:48;3.17;;;1.80;;
12435;SDS011;6282;51.440;6.938;2023-06-14T05:13:15;2.17;;;1.92;;
12435;SDS011;6282;51.440;6.938;2023-06-14T05:15:42;2.30;;;1.80;;
12435;SDS011;6282;51.440;6.938;2023-06-14T05:18:09;3.97;;;1.83;;
12435;SDS011;6282;51.440;6.938;2023-06-14T05:20:38;4.65;;;2.20;;
12435;SDS011;6282;51.440;6.938;2023-06-14T05:23:08;2.22;;;2.03;;
12435;SDS011;6282;51.440;6.938;2023-06-14T05:25:40;2.90;;;1.80;;
12435;SDS011;6282;51.440;6.938;2023-06-14T05:28:08;7.13;;;2.40;;
12435;SDS011;6282;51.440;6.938;2023-06-14T05:30:35;6.05;;;2.10;;
12435;SDS011;6282;51.440;6.938;2023-06-14T05:33:03;3.03;;;1.90;;
12435;SDS011;6282;51.440;6.938;2023-06-14T05:35:30;4.72;;;2.25;;
12435;SDS011;6282;51.440;6.938;2023-06-14T05:37:57;5.95;;;2.00;;
12435;SDS011;6282;51.440;6.938;2023-06-14T05:40:25;5.10;;;2.10;;
12435;SDS011;6282;51.440;6.938;2023-06-14T05:42:52;2.17;;;1.95;;
12435;SDS011;6282;51.440;6.938;2023-06-14T05:45:18;2.58;;;1.98;;
12435;SDS011;6282;51.440;6.938;2023-06-14T05:47:45;2.97;;;1.95;;
12435;SDS011;6282;51.440;6.938;2023-06-14T05:50:12;1.80;;;1.70;;
12435;SDS011;6282;51.440;6.938;2023-06-14T05:52:39;2.38;;;1.80;;
12435;SDS011;6282;51.440;6.938;2023-06-14T05:55:06;2.00;;;1.83;;
12435;SDS011;6282;51.440;6.938;2023-06-14T05:57:35;2.13;;;1.58;;
12435;SDS011;6282;51.440;6.938;2023-06-14T06:00:02;1.92;;;1.77;;
12435;SDS011;6282;51.440;6.938;2023-06-14T06:02:34;4.32;;;2.10;;
12435;SDS011;6282;51.440;6.938;2023-06-14T06:05:01;2.70;;;1.85;;
12435;SDS011;6282;51.440;6.938;2023-06-14T06:07:28;3.20;;;1.75;;
12435;SDS011;6282;51.440;6.938;2023-06-14T06:09:55;4.80;;;2.08;;
12435;SDS011;6282;51.440;6.938;2023-06-14T06:12:22;2.05;;;1.85;;
12435;SDS011;6282;51.440;6.938;2023-06-14T06:14:50;3.13;;;1.70;;
12435;SDS011;6282;51.440;6.938;2023-06-14T06:17:17;2.67;;;2.10;;
12435;SDS011;6282;51.440;6.938;2023-06-14T06:19:44;2.47;;;1.95;;
12435;SDS011;6282;51.440;6.938;2023-06-14T06:22:10;4.13;;;2.00;;
12435;SDS011;6282;51.440;6.938;2023-06-14T06:24:37;3.45;;;2.00;;
12435;SDS011;6282;51.440;6.938;2023-06-14T06:27:04;2.63;;;1.45;;
12435;SDS011;6282;51.440;6.938;2023-06-14T06:29:33;4.07;;;2.00;;
12435;SDS011;6282;51.440;6.938;2023-06-14T06:32:01;3.40;;;1.92;;
12435;SDS011;6282;51.440;6.938;2023-06-14T06:34:28;1.90;;;1.80;;
12435;SDS011;6282;51.440;6.938;2023-06-14T06:36:55;3.17;;;1.50;;
12435;SDS011;6282;51.440;6.938;2023-06-14T06:39:21;1.30;;;1.20;;
12435;SDS011;6282;51.440;6.938;2023-06-14T06:41:48;1.58;;;1.48;;
12435;SDS011;6282;51.440;6.938;2023-06-14T06:44:15;2.20;;;1.63;;
12435;SDS011;6282;51.440;6.938;2023-06-14T06:46:43;1.65;;;1.17;;
12435;SDS011;6282;51.440;6.938;2023-06-14T06:49:11;1.23;;;1.10;;
12435;SDS011;6282;51.440;6.938;2023-06-14T06:51:40;1.38;;;1.20;;
12435;SDS011;6282;51.440;6.938;2023-06-14T06:54:08;1.20;;;1.10;;
12435;SDS011;6282;51.440;6.938;2023-06-14T06:56:35;1.17;;;1.17;;
12435;SDS011;6282;51.440;6.938;2023-06-14T06:59:02;1.60;;;1.25;;
12435;SDS011;6282;51.440;6.938;2023-06-14T07:01:28;1.27;;;1.17;;
12435;SDS011;6282;51.440;6.938;2023-06-14T07:03:55;1.10;;;1.00;;
12435;SDS011;6282;51.440;6.938;2023-06-14T07:06:23;1.20;;;1.10;;
12435;SDS011;6282;51.440;6.938;2023-06-14T07:08:52;1.15;;;1.05;;
12435;SDS011;6282;51.440;6.938;2023-06-14T07:11:19;1.17;;;1.10;;
12435;SDS011;6282;51.440;6.938;2023-06-14T07:13:46;1.50;;;1.20;;
12435;SDS011;6282;51.440;6.938;2023-06-14T07:16:13;1.40;;;1.30;;
12435;SDS011;6282;51.440;6.938;2023-06-14T07:18:40;1.48;;;1.30;;
12435;SDS011;6282;51.440;6.938;2023-06-14T07:21:07;1.00;;;1.00;;
12435;SDS011;6282;51.440;6.938;2023-06-14T07:23:35;1.10;;;1.00;;
12435;SDS011;6282;51.440;6.938;2023-06-14T07:26:02;1.30;;;1.20;;
12435;SDS011;6282;51.440;6.938;2023-06-14T07:28:28;1.10;;;1.00;;
12435;SDS011;6282;51.440;6.938;2023-06-14T07:30:55;1.48;;;1.13;;
12435;SDS011;6282;51.440;6.938;2023-06-14T07:33:22;1.40;;;1.30;;
12435;SDS011;6282;51.440;6.938;2023-06-14T07:35:49;1.90;;;1.10;;
12435;SDS011;6282;51.440;6.938;2023-06-14T07:38:17;0.98;;;0.98;;
12435;SDS011;6282;51.440;6.938;2023-06-14T07:40:46;1.27;;;1.17;;
12435;SDS011;6282;51.440;6.938;2023-06-14T07:43:13;1.13;;;1.05;;
12435;SDS011;6282;51.440;6.938;2023-06-14T07:45:39;1.13;;;1.02;;
12435;SDS011;6282;51.440;6.938;2023-06-14T07:48:06;1.00;;;1.00;;
12435;SDS011;6282;51.440;6.938;2023-06-14T07:50:33;1.30;;;1.20;;
12435;SDS011;6282;51.440;6.938;2023-06-14T07:53:00;1.20;;;1.10;;
12435;SDS011;6282;51.440;6.938;2023-06-14T07:55:27;2.00;;;1.30;;
12435;SDS011;6282;51.440;6.938;2023-06-14T07:57:55;1.17;;;1.13;;
12435;SDS011;6282;51.440;6.938;2023-06-14T08:00:22;1.00;;;1.00;;
12435;SDS011;6282;51.440;6.938;2023-06-14T08:02:49;0.90;;;0.90;;
12435;SDS011;6282;51.440;6.938;2023-06-14T08:05:17;1.33;;;1.20;;
12435;SDS011;6282;51.440;6.938;2023-06-14T08:07:44;1.40;;;1.30;;
12435;SDS011;6282;51.440;6.938;2023-06-14T08:10:11;1.17;;;1.13;;
12435;SDS011;6282;51.440;6.938;2023-06-14T08:12:37;1.35;;;1.20;;
12435;SDS011;6282;51.440;6.938;2023-06-14T08:15:06;1.40;;;1.30;;
12435;SDS011;6282;51.440;6.938;2023-06-14T08:17:34;1.23;;;1.13;;
12435;SDS011;6282;51.440;6.938;2023-06-14T08:20:01;1.25;;;1.17;;
12435;SDS011;6282;51.440;6.938;2023-06-14T08:22:29;1.48;;;1.30;;
12435;SDS011;6282;51.440;6.938;2023-06-14T08:24:58;1.00;;;1.00;;
12435;SDS011;6282;51.440;6.938;2023-06-14T08:27:26;1.65;;;1.27;;
12435;SDS011;6282;51.440;6.938;2023-06-14T08:29:53;1.17;;;1.17;;
12435;SDS011;6282;51.440;6.938;2023-06-14T08:32:21;1.20;;;1.20;;
12435;SDS011;6282;51.440;6.938;2023-06-14T08:34:49;1.50;;;1.02;;
12435;SDS011;6282;51.440;6.938;2023-06-14T08:37:16;3.25;;;1.13;;
12435;SDS011;6282;51.440;6.938;2023-06-14T08:39:43;1.38;;;1.30;;
12435;SDS011;6282;51.440;6.938;2023-06-14T08:42:10;1.73;;;1.30;;
12435;SDS011;6282;51.440;6.938;2023-06-14T08:44:40;1.05;;;1.05;;
12435;SDS011;6282;51.440;6.938;2023-06-14T08:47:07;1.63;;;1.15;;
12435;SDS011;6282;51.440;6.938;2023-06-14T08:49:37;1.33;;;1.20;;
12435;SDS011;6282;51.440;6.938;2023-06-14T08:52:05;1.02;;;1.02;;
12435;SDS011;6282;51.440;6.938;2023-06-14T08:54:38;0.93;;;0.93;;
12435;SDS011;6282;51.440;6.938;2023-06-14T08:57:09;1.50;;;1.40;;
12435;SDS011;6282;51.440;6.938;2023-06-14T08:59:40;1.45;;;1.35;;
12435;SDS011;6282;51.440;6.938;2023-06-14T09:02:14;1.60;;;1.50;;
12435;SDS011;6282;51.440;6.938;2023-06-14T09:04:44;1.45;;;1.35;;
12435;SDS011;6282;51.440;6.938;2023-06-14T09:07:11;1.42;;;1.33;;
12435;SDS011;6282;51.440;6.938;2023-06-14T09:09:38;2.53;;;1.10;;
12435;SDS011;6282;51.440;6.938;2023-06-14T09:12:07;1.50;;;1.40;;
12435;SDS011;6282;51.440;6.938;2023-06-14T09:14:36;1.60;;;1.50;;
12435;SDS011;6282;51.440;6.938;2023-06-14T09:17:06;1.50;;;1.20;;
12435;SDS011;6282;51.440;6.938;2023-06-14T09:19:33;1.60;;;1.50;;
12435;SDS011;6282;51.440;6.938;2023-06-14T09:22:02;1.38;;;1.27;;
12435;SDS011;6282;51.440;6.938;2023-06-14T09:24:29;1.30;;;1.20;;
12435;SDS011;6282;51.440;6.938;2023-06-14T09:26:56;0.80;;;0.80;;
12435;SDS011;6282;51.440;6.938;2023-06-14T09:29:23;2.47;;;1.25;;
12435;SDS011;6282;51.440;6.938;2023-06-14T09:31:51;1.30;;;1.20;;
12435;SDS011;6282;51.440;6.938;2023-06-14T09:34:18;1.48;;;1.15;;
12435;SDS011;6282;51.440;6.938;2023-06-14T09:36:48;0.88;;;0.88;;
12435;SDS011;6282;51.440;6.938;2023-06-14T09:39:17;1.60;;;0.90;;
12435;SDS011;6282;51.440;6.938;2023-06-14T09:41:44;1.65;;;1.08;;
12435;SDS011;6282;51.440;6.938;2023-06-14T09:44:11;1.75;;;1.00;;
12435;SDS011;6282;51.440;6.938;2023-06-14T09:46:38;1.88;;;0.93;;
12435;SDS011;6282;51.440;6.938;2023-06-14T09:49:05;2.70;;;0.80;;
12435;SDS011;6282;51.440;6.938;2023-06-14T09:51:33;1.10;;;1.00;;
12435;SDS011;6282;51.440;6.938;2023-06-14T09:54:03;1.38;;;0.88;;
12435;SDS011;6282;51.440;6.938;2023-06-14T09:56:31;1.10;;;1.10;;
12435;SDS011;6282;51.440;6.938;2023-06-14T09:59:01;1.15;;;0.93;;
12435;SDS011;6282;51.440;6.938;2023-06-14T10:01:32;1.20;;;1.20;;
12435;SDS011;6282;51.440;6.938;2023-06-14T10:04:00;1.10;;;1.00;;
12435;SDS011;6282;51.440;6.938;2023-06-14T10:06:29;1.08;;;1.00;;
12435;SDS011;6282;51.440;6.938;2023-06-14T10:08:58;0.80;;;0.80;;
12435;SDS011;6282;51.440;6.938;2023-06-14T10:11:26;0.93;;;0.93;;
12435;SDS011;6282;51.440;6.938;2023-06-14T10:13:55;1.98;;;0.95;;
12435;SDS011;6282;51.440;6.938;2023-06-14T10:16:24;0.90;;;0.90;;
12435;SDS011;6282;51.440;6.938;2023-06-14T10:18:59;0.75;;;0.75;;
12435;SDS011;6282;51.440;6.938;2023-06-14T10:21:34;0.50;;;0.50;;
12435;SDS011;6282;51.440;6.938;2023-06-14T10:24:10;2.50;;;0.82;;
12435;SDS011;6282;51.440;6.938;2023-06-14T10:26:49;1.13;;;1.02;;
12435;SDS011;6282;51.440;6.938;2023-06-14T10:29:18;0.70;;;0.70;;
12435;SDS011;6282;51.440;6.938;2023-06-14T10:31:46;0.70;;;0.70;;
12435;SDS011;6282;51.440;6.938;2023-06-14T10:34:21;0.63;;;0.63;;
12435;SDS011;6282;51.440;6.938;2023-06-14T10:36:59;2.22;;;0.70;;
12435;SDS011;6282;51.440;6.938;2023-06-14T10:39:27;1.20;;;0.70;;
12435;SDS011;6282;51.440;6.938;2023-06-14T10:41:55;0.70;;;0.70;;
12435;SDS011;6282;51.440;6.938;2023-06-14T10:44:39;0.70;;;0.70;;
12435;SDS011;6282;51.440;6.938;2023-06-14T10:49:58;0.70;;;0.70;;
12435;SDS011;6282;51.440;6.938;2023-06-14T10:52:32;0.90;;;0.90;;
12435;SDS011;6282;51.440;6.938;2023-06-14T10:55:01;0.90;;;0.90;;
12435;SDS011;6282;51.440;6.938;2023-06-14T10:57:34;0.60;;;0.60;;
12435;SDS011;6282;51.440;6.938;2023-06-14T11:00:04;2.83;;;0.82;;
12435;SDS011;6282;51.440;6.938;2023-06-14T11:02:46;1.88;;;0.80;;
12435;SDS011;6282;51.440;6.938;2023-06-14T11:05:33;0.73;;;0.73;;
12435;SDS011;6282;51.440;6.938;2023-06-14T11:10:57;1.10;;;0.80;;
12435;SDS011;6282;51.440;6.938;2023-06-14T11:13:26;4.07;;;0.80;;
12435;SDS011;6282;51.440;6.938;2023-06-14T11:15:55;0.70;;;0.70;;
12435;SDS011;6282;51.440;6.938;2023-06-14T11:18:23;4.30;;;0.88;;
12435;SDS011;6282;51.440;6.938;2023-06-14T11:20:52;1.02;;;0.90;;
12435;SDS011;6282;51.440;6.938;2023-06-14T11:23:21;0.93;;;0.90;;
12435;SDS011;6282;51.440;6.938;2023-06-14T11:25:51;1.00;;;1.00;;
12435;SDS011;6282;51.440;6.938;2023-06-14T11:28:18;2.22;;;0.70;;
12435;SDS011;6282;51.440;6.938;2023-06-14T11:30:47;0.80;;;0.80;;
12435;SDS011;6282;51.440;6.938;2023-06-14T11:33:17;0.68;;;0.68;;
12435;SDS011;6282;51.440;6.938;2023-06-14T11:35:44;0.65;;;0.63;;
12435;SDS011;6282;51.440;6.938;2023-06-14T11:38:11;1.13;;;0.82;;
12435;SDS011;6282;51.440;6.938;2023-06-14T11:40:38;0.80;;;0.80;;
12435;SDS011;6282;51.440;6.938;2023-06-14T11:43:05;0.80;;;0.80;;
12435;SDS011;6282;51.440;6.938;2023-06-14T11:45:32;1.05;;;1.05;;
12435;SDS011;6282;51.440;6.938;2023-06-14T11:47:59;2.22;;;0.70;;
12435;SDS011;6282;51.440;6.938;2023-06-14T11:50:27;0.95;;;0.90;;
12435;SDS011;6282;51.440;6.938;2023-06-14T11:52:55;0.60;;;0.60;;
12435;SDS011;6282;51.440;6.938;2023-06-14T11:55:22;0.65;;;0.65;;
12435;SDS011;6282;51.440;6.938;2023-06-14T11:57:50;0.73;;;0.73;;
12435;SDS011;6282;51.440;6.938;2023-06-14T12:00:17;0.70;;;0.70;;
12435;SDS011;6282;51.440;6.938;2023-06-14T12:02:52;0.75;;;0.75;;
12435;SDS011;6282;51.440;6.938;2023-06-14T12:05:21;3.72;;;0.80;;
12435;SDS011;6282;51.440;6.938;2023-06-14T12:07:49;1.15;;;0.80;;
12435;SDS011;6282;51.440;6.938;2023-06-14T12:10:18;0.70;;;0.70;;
12435;SDS011;6282;51.440;6.938;2023-06-14T12:12:45;1.55;;;0.90;;
12435;SDS011;6282;51.440;6.938;2023-06-14T12:15:12;2.53;;;0.90;;
12435;SDS011;6282;51.440;6.938;2023-06-14T12:17:39;1.10;;;0.85;;
12435;SDS011;6282;51.440;6.938;2023-06-14T12:20:08;1.00;;;0.90;;
12435;SDS011;6282;51.440;6.938;2023-06-14T12:22:46;2.20;;;1.00;;
12435;SDS011;6282;51.440;6.938;2023-06-14T12:25:26;1.95;;;1.00;;
12435;SDS011;6282;51.440;6.938;2023-06-14T12:27:53;1.65;;;1.00;;
12435;SDS011;6282;51.440;6.938;2023-06-14T12:30:21;1.50;;;1.10;;
12435;SDS011;6282;51.440;6.938;2023-06-14T12:32:48;1.00;;;1.00;;
12435;SDS011;6282;51.440;6.938;2023-06-14T12:35:16;1.13;;;1.13;;
12435;SDS011;6282;51.440;6.938;2023-06-14T12:37:44;1.13;;;1.02;;
12435;SDS011;6282;51.440;6.938;2023-06-14T12:40:13;1.13;;;1.10;;
12435;SDS011;6282;51.440;6.938;2023-06-14T12:42:40;1.05;;;1.05;;
12435;SDS011;6282;51.440;6.938;2023-06-14T12:45:07;1.17;;;1.13;;
12435;SDS011;6282;51.440;6.938;2023-06-14T12:47:35;1.67;;;0.85;;
12435;SDS011;6282;51.440;6.938;2023-06-14T12:50:02;1.55;;;1.10;;
12435;SDS011;6282;51.440;6.938;2023-06-14T12:52:29;1.17;;;1.17;;
12435;SDS011;6282;51.440;6.938;2023-06-14T12:54:56;1.45;;;1.35;;
12435;SDS011;6282;51.440;6.938;2023-06-14T12:57:24;1.40;;;1.30;;
12435;SDS011;6282;51.440;6.938;2023-06-14T12:59:51;1.00;;;1.00;;
12435;SDS011;6282;51.440;6.938;2023-06-14T13:02:19;2.08;;;1.20;;
12435;SDS011;6282;51.440;6.938;2023-06-14T13:04:48;0.77;;;0.77;;
12435;SDS011;6282;51.440;6.938;2023-06-14T13:07:15;1.88;;;1.33;;
12435;SDS011;6282;51.440;6.938;2023-06-14T13:09:42;2.78;;;1.33;;
12435;SDS011;6282;51.440;6.938;2023-06-14T13:12:09;2.20;;;1.02;;
12435;SDS011;6282;51.440;6.938;2023-06-14T13:14:38;1.05;;;1.05;;
12435;SDS011;6282;51.440;6.938;2023-06-14T13:17:07;1.05;;;1.05;;
12435;SDS011;6282;51.440;6.938;2023-06-14T13:19:35;1.55;;;1.00;;
12435;SDS011;6282;51.440;6.938;2023-06-14T13:22:01;1.13;;;1.05;;
12435;SDS011;6282;51.440;6.938;2023-06-14T13:24:29;1.05;;;1.05;;
12435;SDS011;6282;51.440;6.938;2023-06-14T13:26:56;1.10;;;1.00;;
12435;SDS011;6282;51.440;6.938;2023-06-14T13:29:23;1.20;;;1.20;;
12435;SDS011;6282;51.440;6.938;2023-06-14T13:31:52;1.15;;;1.05;;
12435;SDS011;6282;51.440;6.938;2023-06-14T13:34:20;0.82;;;0.82;;
12435;SDS011;6282;51.440;6.938;2023-06-14T13:36:47;0.90;;;0.90;;
12435;SDS011;6282;51.440;6.938;2023-06-14T13:39:16;1.48;;;1.35;;
12435;SDS011;6282;51.440;6.938;2023-06-14T13:41:42;3.38;;;1.27;;
12435;SDS011;6282;51.440;6.938;2023-06-14T13:44:09;3.30;;;1.38;;
12435;SDS011;6282;51.440;6.938;2023-06-14T13:46:39;1.08;;;1.08;;
12435;SDS011;6282;51.440;6.938;2023-06-14T13:49:08;1.10;;;1.00;;
12435;SDS011;6282;51.440;6.938;2023-06-14T13:51:35;2.13;;;1.30;;
12435;SDS011;6282;51.440;6.938;2023-06-14T13:54:02;1.38;;;1.27;;
12435;SDS011;6282;51.440;6.938;2023-06-14T13:56:29;1.23;;;1.13;;
12435;SDS011;6282;51.440;6.938;2023-06-14T13:58:56;1.13;;;1.10;;
12435;SDS011;6282;51.440;6.938;2023-06-14T14:01:22;1.30;;;1.20;;
12435;SDS011;6282;51.440;6.938;2023-06-14T14:03:50;1.10;;;1.10;;
12435;SDS011;6282;51.440;6.938;2023-06-14T14:06:18;2.20;;;1.30;;
12435;SDS011;6282;51.440;6.938;2023-06-14T14:08:45;1.00;;;1.00;;
12435;SDS011;6282;51.440;6.938;2023-06-14T14:11:12;2.00;;;1.42;;
12435;SDS011;6282;51.440;6.938;2023-06-14T14:13:41;0.98;;;0.98;;
12435;SDS011;6282;51.440;6.938;2023-06-14T14:16:09;1.00;;;1.00;;
12435;SDS011;6282;51.440;6.938;2023-06-14T14:18:36;1.48;;;1.25;;
12435;SDS011;6282;51.440;6.938;2023-06-14T14:21:03;2.15;;;1.15;;
12435;SDS011;6282;51.440;6.938;2023-06-14T14:23:31;1.88;;;1.35;;
12435;SDS011;6282;51.440;6.938;2023-06-14T14:25:58;1.50;;;1.45;;
12435;SDS011;6282;51.440;6.938;2023-06-14T14:28:28;2.17;;;1.15;;
12435;SDS011;6282;51.440;6.938;2023-06-14T14:30:55;1.08;;;1.05;;
12435;SDS011;6282;51.440;6.938;2023-06-14T14:33:22;1.33;;;1.15;;
12435;SDS011;6282;51.440;6.938;2023-06-14T14:35:49;1.50;;;1.20;;
12435;SDS011;6282;51.440;6.938;2023-06-14T14:38:15;2.17;;;1.13;;
12435;SDS011;6282;51.440;6.938;2023-06-14T14:40:44;1.05;;;1.00;;
12435;SDS011;6282;51.440;6.938;2023-06-14T14:43:11;1.27;;;1.20;;
12435;SDS011;6282;51.440;6.938;2023-06-14T14:45:38;1.20;;;1.10;;
12435;SDS011;6282;51.440;6.938;2023-06-14T14:48:04;1.75;;;1.40;;
12435;SDS011;6282;51.440;6.938;2023-06-14T14:50:32;1.63;;;1.20;;
12435;SDS011;6282;51.440;6.938;2023-06-14T14:52:59;2.13;;;1.20;;
12435;SDS011;6282;51.440;6.938;2023-06-14T14:55:26;1.20;;;1.10;;
12435;SDS011;6282;51.440;6.938;2023-06-14T14:57:55;1.10;;;1.10;;
12435;SDS011;6282;51.440;6.938;2023-06-14T15:00:21;1.13;;;1.05;;
12435;SDS011;6282;51.440;6.938;2023-06-14T15:02:48;1.20;;;1.20;;
12435;SDS011;6282;51.440;6.938;2023-06-14T15:05:15;1.38;;;1.10;;
12435;SDS011;6282;51.440;6.938;2023-06-14T15:07:42;1.77;;;1.25;;
12435;SDS011;6282;51.440;6.938;2023-06-14T15:10:10;2.08;;;1.15;;
12435;SDS011;6282;51.440;6.938;2023-06-14T15:12:38;1.17;;;1.10;;